Time;durP1;ratioP1;P1;durP2;ratioP2;P2;SDS_P1;SDS_P2;PMS_P1;PMS_P2;Temp;Humidity;BMP_temperature;BMP_pressure;BME280_temperature;BME280_humidity;BME280_pressure;Samples;Min_cycle;Max_cycle;Signal;HPM_P1;HPM_P2
2024/03/14 00:00:16;;;;;;;0.80;0.70;;;;;;;;;;5054081;28;20013;-76
2024/03/14 00:02:43;;;;;;;0.65;0.65;;;;;;;;;;5053661;28;20126;-77
2024/03/14 00:05:10;;;;;;;0.60;0.60;;;;;;;;;;5053527;28;20028;-78
2024/03/14 00:07:36;;;;;;;1.40;1.30;;;;;;;;;;5054719;28;20024;-77
2024/03/14 00:10:04;;;;;;;1.67;1.38;;;;;;;;;;5053105;28;20053;-77
2024/03/14 00:12:30;;;;;;;1.88;1.48;;;;;;;;;;5055676;28;20353;-76
2024/03/14 00:14:57;;;;;;;0.95;0.80;;;;;;;;;;5054246;28;20021;-77
2024/03/14 00:17:23;;;;;;;1.02;0.93;;;;;;;;;;5058176;28;20028;-77
2024/03/14 00:19:49;;;;;;;1.88;1.30;;;;;;;;;;5061036;28;20084;-77
2024/03/14 00:22:17;;;;;;;1.08;1.00;;;;;;;;;;5054824;28;20024;-78
2024/03/14 00:24:43;;;;;;;0.90;0.70;;;;;;;;;;5065684;28;20013;-78
2024/03/14 00:27:09;;;;;;;1.55;1.35;;;;;;;;;;5059746;28;20025;-76
2024/03/14 00:29:36;;;;;;;0.93;0.80;;;;;;;;;;5055904;28;20438;-77
2024/03/14 00:32:02;;;;;;;0.77;0.75;;;;;;;;;;5054688;28;20039;-76
2024/03/14 00:34:29;;;;;;;0.80;0.80;;;;;;;;;;5056173;28;20020;-77
2024/03/14 00:36:58;;;;;;;0.60;0.60;;;;;;;;;;5058429;28;20028;-77
2024/03/14 00:39:26;;;;;;;0.80;0.80;;;;;;;;;;5054652;28;20017;-77
2024/03/14 00:41:53;;;;;;;0.68;0.65;;;;;;;;;;5055207;28;20053;-77
2024/03/14 00:44:20;;;;;;;0.65;0.60;;;;;;;;;;5057007;28;20033;-76
2024/03/14 00:46:46;;;;;;;0.88;0.88;;;;;;;;;;5053600;28;20029;-77
2024/03/14 00:49:14;;;;;;;0.60;0.60;;;;;;;;;;5053007;28;20025;-77
2024/03/14 00:51:40;;;;;;;1.17;0.75;;;;;;;;;;5050360;28;20024;-76
2024/03/14 00:54:07;;;;;;;0.52;0.52;;;;;;;;;;5052122;28;20456;-77
2024/03/14 00:56:33;;;;;;;0.52;0.52;;;;;;;;;;5053409;28;20025;-77
2024/03/14 00:58:59;;;;;;;0.70;0.70;;;;;;;;;;5052656;28;20480;-78
2024/03/14 01:01:26;;;;;;;0.93;0.63;;;;;;;;;;5052330;28;20037;-77
2024/03/14 01:03:58;;;;;;;1.15;0.90;;;;;;;;;;5052008;28;20024;-77
2024/03/14 01:06:24;;;;;;;0.80;0.80;;;;;;;;;;5050122;28;20535;-77
2024/03/14 01:08:51;;;;;;;0.68;0.65;;;;;;;;;;5052456;28;20021;-77
2024/03/14 01:11:20;;;;;;;0.98;0.85;;;;;;;;;;5060028;28;20116;-77
2024/03/14 01:13:46;;;;;;;0.82;0.82;;;;;;;;;;5053801;28;20044;-76
2024/03/14 01:16:12;;;;;;;0.80;0.80;;;;;;;;;;5053528;28;20021;-77
2024/03/14 01:18:40;;;;;;;0.55;0.55;;;;;;;;;;5053820;28;20021;-76
2024/03/14 01:21:09;;;;;;;0.82;0.80;;;;;;;;;;5052277;28;20048;-77
2024/03/14 01:23:37;;;;;;;0.65;0.65;;;;;;;;;;5053277;28;20027;-77
2024/03/14 01:26:03;;;;;;;0.60;0.60;;;;;;;;;;5053831;28;20029;-77
2024/03/14 01:28:30;;;;;;;0.77;0.77;;;;;;;;;;5046677;28;20029;-76
2024/03/14 01:30:58;;;;;;;0.77;0.77;;;;;;;;;;5047824;28;20091;-78
2024/03/14 01:33:25;;;;;;;0.80;0.80;;;;;;;;;;5048808;28;20025;-77
2024/03/14 01:35:54;;;;;;;0.77;0.77;;;;;;;;;;5047948;28;20021;-77
2024/03/14 01:38:21;;;;;;;0.90;0.90;;;;;;;;;;5052629;28;20021;-78
2024/03/14 01:40:47;;;;;;;0.65;0.65;;;;;;;;;;5051638;28;20023;-77
2024/03/14 01:43:14;;;;;;;0.60;0.60;;;;;;;;;;5050960;28;20021;-77
2024/03/14 01:45:42;;;;;;;0.60;0.60;;;;;;;;;;5052406;28;20104;-77
2024/03/14 01:48:08;;;;;;;0.60;0.55;;;;;;;;;;5047731;28;20037;-77
2024/03/14 01:50:34;;;;;;;0.50;0.50;;;;;;;;;;5048748;28;20487;-77
2024/03/14 01:53:00;;;;;;;0.32;0.32;;;;;;;;;;5047499;28;20089;-77
2024/03/14 01:55:27;;;;;;;0.70;0.70;;;;;;;;;;5050534;28;20032;-76
2024/03/14 01:57:53;;;;;;;0.70;0.70;;;;;;;;;;5049150;28;20509;-77
2024/03/14 02:00:24;;;;;;;0.45;0.45;;;;;;;;;;5050844;28;20437;-76
2024/03/14 02:02:51;;;;;;;0.35;0.35;;;;;;;;;;5046781;28;20380;-76
2024/03/14 02:05:28;;;;;;;0.50;0.50;;;;;;;;;;5051847;28;20103;-77
2024/03/14 02:07:55;;;;;;;0.52;0.52;;;;;;;;;;5057355;28;20382;-77
2024/03/14 02:10:24;;;;;;;0.43;0.40;;;;;;;;;;5054717;28;20029;-77
2024/03/14 02:12:53;;;;;;;0.43;0.43;;;;;;;;;;5060756;28;20017;-77
2024/03/14 02:15:20;;;;;;;0.60;0.60;;;;;;;;;;5056088;28;20028;-77
2024/03/14 02:17:46;;;;;;;0.38;0.38;;;;;;;;;;5057384;28;20021;-77
2024/03/14 02:20:14;;;;;;;0.50;0.40;;;;;;;;;;5057119;28;20025;-77
2024/03/14 02:22:46;;;;;;;0.10;0.10;;;;;;;;;;5058243;28;20025;-77
2024/03/14 02:25:16;;;;;;;0.20;0.20;;;;;;;;;;5055105;28;20043;-77
2024/03/14 02:27:42;;;;;;;0.55;0.30;;;;;;;;;;5056901;28;20087;-77
2024/03/14 02:30:08;;;;;;;0.50;0.50;;;;;;;;;;5054632;28;20519;-77
2024/03/14 02:32:35;;;;;;;0.30;0.30;;;;;;;;;;5053524;28;20033;-77
2024/03/14 02:35:02;;;;;;;0.40;0.40;;;;;;;;;;5055700;28;20032;-77
2024/03/14 02:37:30;;;;;;;0.43;0.43;;;;;;;;;;5054071;28;20020;-77
2024/03/14 02:39:57;;;;;;;0.40;0.40;;;;;;;;;;5053660;28;20040;-78
2024/03/14 02:42:24;;;;;;;0.40;0.40;;;;;;;;;;5054115;28;20472;-76
2024/03/14 02:44:50;;;;;;;0.50;0.50;;;;;;;;;;5055554;28;20423;-76
2024/03/14 02:47:17;;;;;;;0.40;0.40;;;;;;;;;;5052023;28;20460;-77
2024/03/14 02:49:43;;;;;;;0.50;0.50;;;;;;;;;;5053088;28;20025;-77
2024/03/14 02:52:10;;;;;;;0.45;0.45;;;;;;;;;;5053707;28;20475;-77
2024/03/14 02:54:36;;;;;;;0.50;0.50;;;;;;;;;;5061920;28;20112;-76
2024/03/14 02:57:03;;;;;;;0.50;0.50;;;;;;;;;;5060516;28;20475;-77
2024/03/14 02:59:30;;;;;;;0.50;0.50;;;;;;;;;;5056186;28;20044;-77
2024/03/14 03:01:58;;;;;;;0.80;0.68;;;;;;;;;;5054518;28;20044;-77
2024/03/14 03:04:24;;;;;;;0.50;0.43;;;;;;;;;;5057251;28;20025;-76
2024/03/14 03:06:58;;;;;;;0.40;0.40;;;;;;;;;;5059604;28;20023;-76
2024/03/14 03:09:29;;;;;;;0.57;0.55;;;;;;;;;;5059289;28;20066;-76
2024/03/14 03:11:57;;;;;;;0.33;0.33;;;;;;;;;;5072707;28;20024;-77
2024/03/14 03:14:23;;;;;;;0.50;0.50;;;;;;;;;;5073090;28;20268;-77
2024/03/14 03:16:50;;;;;;;0.98;0.63;;;;;;;;;;5072075;28;20052;-75
2024/03/14 03:19:17;;;;;;;0.52;0.50;;;;;;;;;;5073938;28;20074;-76
2024/03/14 03:21:43;;;;;;;0.60;0.35;;;;;;;;;;5074353;28;20088;-76
2024/03/14 03:24:12;;;;;;;0.43;0.35;;;;;;;;;;5075741;28;20021;-76
2024/03/14 03:26:40;;;;;;;0.50;0.50;;;;;;;;;;5057526;28;20102;-77
2024/03/14 03:29:07;;;;;;;0.50;0.50;;;;;;;;;;5052631;28;20029;-77
2024/03/14 03:31:34;;;;;;;0.60;0.60;;;;;;;;;;5053768;28;20032;-77
2024/03/14 03:34:01;;;;;;;0.40;0.40;;;;;;;;;;5055645;28;20384;-76
2024/03/14 03:36:29;;;;;;;0.40;0.40;;;;;;;;;;5052610;28;20013;-77
2024/03/14 03:38:56;;;;;;;0.40;0.40;;;;;;;;;;5053879;28;20037;-77
2024/03/14 03:41:23;;;;;;;0.80;0.40;;;;;;;;;;5054912;28;20028;-76
2024/03/14 03:43:52;;;;;;;0.43;0.43;;;;;;;;;;5059819;28;20086;-77
2024/03/14 03:46:19;;;;;;;0.40;0.40;;;;;;;;;;5054201;28;20036;-76
2024/03/14 03:48:45;;;;;;;0.32;0.32;;;;;;;;;;5053832;28;20032;-77
2024/03/14 03:51:13;;;;;;;0.40;0.40;;;;;;;;;;5052787;28;20399;-76
2024/03/14 03:53:39;;;;;;;0.40;0.40;;;;;;;;;;5054191;28;20013;-76
2024/03/14 03:56:07;;;;;;;0.40;0.40;;;;;;;;;;5053781;28;20029;-77
2024/03/14 03:58:33;;;;;;;0.50;0.50;;;;;;;;;;5054462;28;20059;-76
2024/03/14 04:01:12;;;;;;;0.30;0.30;;;;;;;;;;5053232;28;20020;-77
2024/03/14 04:03:41;;;;;;;0.30;0.30;;;;;;;;;;5046974;28;20045;-76
2024/03/14 04:06:11;;;;;;;0.30;0.30;;;;;;;;;;5053430;28;20458;-77
2024/03/14 04:08:37;;;;;;;0.30;0.30;;;;;;;;;;5053358;28;20021;-74
2024/03/14 04:11:13;;;;;;;0.20;0.20;;;;;;;;;;5052046;28;20033;-77
2024/03/14 04:13:39;;;;;;;0.40;0.40;;;;;;;;;;5049146;28;20106;-76
2024/03/14 04:16:05;;;;;;;0.32;0.32;;;;;;;;;;5054130;28;20025;-76
2024/03/14 04:18:31;;;;;;;0.20;0.20;;;;;;;;;;5047384;28;20748;-75
2024/03/14 04:20:58;;;;;;;0.40;0.40;;;;;;;;;;5052051;28;20040;-76
2024/03/14 04:23:27;;;;;;;0.30;0.30;;;;;;;;;;5057132;28;20086;-77
2024/03/14 04:25:54;;;;;;;0.20;0.20;;;;;;;;;;5067550;28;20025;-77
2024/03/14 04:28:23;;;;;;;0.40;0.40;;;;;;;;;;5059133;28;20515;-77
2024/03/14 04:30:49;;;;;;;0.22;0.22;;;;;;;;;;5056068;28;20064;-77
2024/03/14 04:33:15;;;;;;;0.28;0.28;;;;;;;;;;5058274;28;20029;-77
2024/03/14 04:35:41;;;;;;;0.65;0.60;;;;;;;;;;5071442;28;20032;-77
2024/03/14 04:38:09;;;;;;;0.45;0.45;;;;;;;;;;5071910;28;20085;-77
2024/03/14 04:40:35;;;;;;;0.60;0.60;;;;;;;;;;5059678;28;20046;-77
2024/03/14 04:43:04;;;;;;;0.38;0.38;;;;;;;;;;5065455;28;20029;-76
2024/03/14 04:45:30;;;;;;;0.52;0.52;;;;;;;;;;5059526;28;20021;-76
2024/03/14 04:47:56;;;;;;;0.40;0.40;;;;;;;;;;5047395;28;20104;-77
2024/03/14 04:50:23;;;;;;;0.50;0.50;;;;;;;;;;5053093;28;20181;-77
2024/03/14 04:52:49;;;;;;;0.70;0.70;;;;;;;;;;5055832;28;20025;-77
2024/03/14 04:55:17;;;;;;;0.75;0.75;;;;;;;;;;5055858;28;20025;-78
2024/03/14 04:57:46;;;;;;;0.65;0.65;;;;;;;;;;5056249;28;20021;-77
2024/03/14 05:02:55;;;;;;;0.77;0.68;;;;;;;;;;5056695;28;20024;-77
2024/03/14 05:05:21;;;;;;;0.50;0.47;;;;;;;;;;5061642;28;20100;-77
2024/03/14 05:07:48;;;;;;;0.50;0.50;;;;;;;;;;5063801;28;20013;-77
2024/03/14 05:10:17;;;;;;;0.30;0.30;;;;;;;;;;5057148;28;20024;-76
2024/03/14 05:12:44;;;;;;;0.50;0.50;;;;;;;;;;5059689;28;20013;-78
2024/03/14 05:15:10;;;;;;;0.40;0.40;;;;;;;;;;5056636;28;20055;-77
2024/03/14 05:17:36;;;;;;;0.45;0.45;;;;;;;;;;5053594;28;20127;-77
2024/03/14 05:20:05;;;;;;;0.73;0.73;;;;;;;;;;5062105;28;20024;-76
2024/03/14 05:22:34;;;;;;;0.50;0.50;;;;;;;;;;5055733;28;20017;-77
2024/03/14 05:25:06;;;;;;;0.57;0.50;;;;;;;;;;5054086;28;20028;-76
2024/03/14 05:27:32;;;;;;;;;;;;;;;;;;5053369;28;20657;-77
2024/03/14 05:29:58;;;;;;;0.40;0.40;;;;;;;;;;5053428;28;19912;-78
2024/03/14 05:32:28;;;;;;;0.40;0.40;;;;;;;;;;5052329;28;20029;-78
2024/03/14 05:34:55;;;;;;;0.38;0.38;;;;;;;;;;5055541;28;20045;-78
2024/03/14 05:37:27;;;;;;;0.50;0.40;;;;;;;;;;5054774;28;20014;-77
2024/03/14 05:39:53;;;;;;;;;;;;;;;;;;5057244;28;20099;-77
2024/03/14 05:42:19;;;;;;;0.40;0.32;;;;;;;;;;5059829;28;20351;-77
2024/03/14 05:44:50;;;;;;;0.50;0.50;;;;;;;;;;5059797;28;20021;-78
2024/03/14 05:47:16;;;;;;;0.40;0.40;;;;;;;;;;5058309;28;20483;-77
2024/03/14 05:49:42;;;;;;;0.30;0.30;;;;;;;;;;5056721;28;20029;-78
2024/03/14 05:52:10;;;;;;;0.20;0.20;;;;;;;;;;5051227;28;20475;-77
2024/03/14 05:54:36;;;;;;;0.63;0.45;;;;;;;;;;5052379;28;20079;-77
2024/03/14 05:57:05;;;;;;;0.30;0.30;;;;;;;;;;5055150;28;20064;-76
2024/03/14 05:59:32;;;;;;;0.20;0.20;;;;;;;;;;5051752;28;20028;-77
2024/03/14 06:01:58;;;;;;;0.20;0.20;;;;;;;;;;5049976;28;20025;-78
2024/03/14 06:04:24;;;;;;;0.28;0.28;;;;;;;;;;5046894;28;20033;-77
2024/03/14 06:06:50;;;;;;;0.30;0.30;;;;;;;;;;5050357;28;20068;-77
2024/03/14 06:09:17;;;;;;;0.47;0.47;;;;;;;;;;5054845;28;20387;-77
2024/03/14 06:11:43;;;;;;;0.22;0.22;;;;;;;;;;5051296;28;20033;-78
2024/03/14 06:14:10;;;;;;;0.38;0.38;;;;;;;;;;5047659;28;20078;-77
2024/03/14 06:16:36;;;;;;;0.30;0.30;;;;;;;;;;5053684;28;20021;-77
2024/03/14 06:19:03;;;;;;;0.30;0.30;;;;;;;;;;5054809;28;20937;-78
2024/03/14 06:21:29;;;;;;;0.22;0.22;;;;;;;;;;5047504;28;20353;-78
2024/03/14 06:23:56;;;;;;;0.17;0.17;;;;;;;;;;5053516;28;20115;-77
2024/03/14 06:26:22;;;;;;;0.47;0.47;;;;;;;;;;5057325;28;20080;-77
2024/03/14 06:28:49;;;;;;;0.17;0.17;;;;;;;;;;5059023;28;20017;-77
2024/03/14 06:31:15;;;;;;;0.20;0.10;;;;;;;;;;5057471;28;20021;-78
2024/03/14 06:33:42;;;;;;;0.22;0.22;;;;;;;;;;5058915;28;20017;-77
2024/03/14 06:36:08;;;;;;;0.30;0.30;;;;;;;;;;5059717;28;20376;-76
2024/03/14 06:38:34;;;;;;;0.22;0.20;;;;;;;;;;5057254;28;20021;-77
2024/03/14 06:41:00;;;;;;;0.20;0.20;;;;;;;;;;5057991;28;20077;-77
2024/03/14 06:43:27;;;;;;;0.20;0.20;;;;;;;;;;5055508;28;20029;-76
2024/03/14 06:45:56;;;;;;;0.20;0.20;;;;;;;;;;5052479;28;20033;-77
2024/03/14 06:48:22;;;;;;;0.17;0.17;;;;;;;;;;5061408;28;20021;-78
2024/03/14 06:50:48;;;;;;;0.03;0.03;;;;;;;;;;5057216;28;20032;-76
2024/03/14 06:53:16;;;;;;;0.10;0.10;;;;;;;;;;5059554;28;20539;-77
2024/03/14 06:55:43;;;;;;;0.20;0.20;;;;;;;;;;5058526;28;20511;-78
2024/03/14 06:58:11;;;;;;;0.10;0.10;;;;;;;;;;5058539;28;20028;-77
2024/03/14 07:00:40;;;;;;;0.20;0.20;;;;;;;;;;5051408;28;20021;-78
2024/03/14 07:03:07;;;;;;;0.10;0.10;;;;;;;;;;5060705;28;20387;-78
2024/03/14 07:05:33;;;;;;;0.15;0.15;;;;;;;;;;5064860;28;20101;-76
2024/03/14 07:07:59;;;;;;;0.20;0.20;;;;;;;;;;5059852;28;20529;-77
2024/03/14 07:10:25;;;;;;;0.17;0.17;;;;;;;;;;5062695;28;20507;-77
2024/03/14 07:12:51;;;;;;;0.00;0.00;;;;;;;;;;5060927;28;20021;-76
2024/03/14 07:15:17;;;;;;;0.08;0.08;;;;;;;;;;5052719;28;20024;-77
2024/03/14 07:17:44;;;;;;;0.05;0.05;;;;;;;;;;5058956;28;20112;-78
2024/03/14 07:20:16;;;;;;;0.00;0.00;;;;;;;;;;5059206;28;20021;-77
2024/03/14 07:22:43;;;;;;;0.10;0.10;;;;;;;;;;5057861;28;20020;-76
2024/03/14 07:25:09;;;;;;;0.10;0.10;;;;;;;;;;5064687;28;20061;-78
2024/03/14 07:27:36;;;;;;;0.13;0.13;;;;;;;;;;5058111;28;20013;-77
2024/03/14 07:30:13;;;;;;;0.20;0.20;;;;;;;;;;5057086;28;20077;-78
2024/03/14 07:32:40;;;;;;;0.25;0.08;;;;;;;;;;5061111;28;20125;-78
2024/03/14 07:35:06;;;;;;;0.10;0.10;;;;;;;;;;5058087;28;20021;-78
2024/03/14 07:37:32;;;;;;;0.10;0.10;;;;;;;;;;5074669;28;20037;-77
2024/03/14 07:39:59;;;;;;;0.10;0.10;;;;;;;;;;5076769;28;20036;-77
2024/03/14 07:42:25;;;;;;;0.10;0.10;;;;;;;;;;5076050;28;20010;-76
2024/03/14 07:44:52;;;;;;;0.10;0.10;;;;;;;;;;5076455;28;20049;-75
2024/03/14 07:47:25;;;;;;;0.20;0.10;;;;;;;;;;5075908;28;20019;-76
2024/03/14 07:49:52;;;;;;;0.20;0.20;;;;;;;;;;5074500;28;20037;-75
2024/03/14 07:52:18;;;;;;;0.17;0.17;;;;;;;;;;5076362;28;20035;-75
2024/03/14 07:54:47;;;;;;;0.20;0.20;;;;;;;;;;5074993;28;20147;-79
2024/03/14 07:57:15;;;;;;;0.20;0.20;;;;;;;;;;5067219;28;20041;-77
2024/03/14 07:59:42;;;;;;;0.25;0.20;;;;;;;;;;5061113;28;20025;-78
2024/03/14 08:02:10;;;;;;;0.10;0.10;;;;;;;;;;5056792;28;20032;-77
2024/03/14 08:04:37;;;;;;;0.20;0.20;;;;;;;;;;5057894;28;20472;-78
2024/03/14 08:07:25;;;;;;;0.10;0.10;;;;;;;;;;5058562;28;20032;-79
2024/03/14 08:09:51;;;;;;;0.13;0.10;;;;;;;;;;5049286;28;20032;-78
2024/03/14 08:12:17;;;;;;;0.10;0.10;;;;;;;;;;5058801;28;20064;-78
2024/03/14 08:14:46;;;;;;;0.10;0.10;;;;;;;;;;5057668;28;20021;-77
2024/03/14 08:17:15;;;;;;;0.20;0.20;;;;;;;;;;5062461;28;20498;-75
2024/03/14 08:19:42;;;;;;;0.15;0.15;;;;;;;;;;5054268;28;20089;-78
2024/03/14 08:22:09;;;;;;;0.30;0.10;;;;;;;;;;5057546;28;20120;-77
2024/03/14 08:24:49;;;;;;;0.10;0.10;;;;;;;;;;5058787;28;20087;-78
2024/03/14 08:27:15;;;;;;;0.10;0.10;;;;;;;;;;5059592;28;20022;-78
2024/03/14 08:29:42;;;;;;;0.28;0.10;;;;;;;;;;5057552;28;20035;-78
2024/03/14 08:32:15;;;;;;;0.20;0.20;;;;;;;;;;5058325;28;20111;-77
2024/03/14 08:34:41;;;;;;;0.20;0.20;;;;;;;;;;5050951;28;20013;-77
2024/03/14 08:37:07;;;;;;;0.52;0.50;;;;;;;;;;5058251;28;20021;-77
2024/03/14 08:39:33;;;;;;;0.52;0.30;;;;;;;;;;5063260;28;20036;-78
2024/03/14 08:42:00;;;;;;;0.20;0.20;;;;;;;;;;5057484;28;20029;-77
2024/03/14 08:44:27;;;;;;;0.10;0.10;;;;;;;;;;5057569;28;20043;-77
2024/03/14 08:46:56;;;;;;;0.25;0.25;;;;;;;;;;5056060;28;20040;-76
2024/03/14 08:49:23;;;;;;;0.10;0.10;;;;;;;;;;5055676;28;20032;-77
2024/03/14 08:51:52;;;;;;;0.20;0.20;;;;;;;;;;5054249;28;20122;-77
2024/03/14 08:56:47;;;;;;;0.35;0.35;;;;;;;;;;5056118;28;20021;-77
2024/03/14 08:59:15;;;;;;;0.43;0.43;;;;;;;;;;5055366;28;20025;-77
2024/03/14 09:01:44;;;;;;;0.40;0.40;;;;;;;;;;5057033;28;20017;-80
2024/03/14 09:04:10;;;;;;;0.50;0.50;;;;;;;;;;5058092;28;20373;-78
2024/03/14 09:06:37;;;;;;;0.52;0.40;;;;;;;;;;5058850;28;20052;-79
2024/03/14 09:09:04;;;;;;;0.85;0.60;;;;;;;;;;5057842;28;20438;-77
2024/03/14 09:11:32;;;;;;;0.28;0.28;;;;;;;;;;5057841;28;20096;-79
2024/03/14 09:13:59;;;;;;;0.43;0.30;;;;;;;;;;5060703;28;20043;-79
2024/03/14 09:16:28;;;;;;;0.43;0.43;;;;;;;;;;5059638;28;20021;-77
2024/03/14 09:18:57;;;;;;;0.80;0.38;;;;;;;;;;5066764;28;20033;-77
2024/03/14 09:21:28;;;;;;;0.25;0.20;;;;;;;;;;5067884;28;20116;-77
2024/03/14 09:23:55;;;;;;;0.40;0.40;;;;;;;;;;5064078;28;20032;-76
2024/03/14 09:26:21;;;;;;;0.30;0.30;;;;;;;;;;5066945;28;20476;-78
2024/03/14 09:28:48;;;;;;;1.08;0.30;;;;;;;;;;5062756;28;20021;-77
2024/03/14 09:31:14;;;;;;;0.30;0.30;;;;;;;;;;5062489;28;20029;-77
2024/03/14 09:33:40;;;;;;;1.20;0.63;;;;;;;;;;5058063;28;20340;-79
2024/03/14 09:36:13;;;;;;;0.30;0.30;;;;;;;;;;5063755;28;20028;-78
2024/03/14 09:38:40;;;;;;;0.50;0.35;;;;;;;;;;5063421;28;20071;-78
2024/03/14 09:41:15;;;;;;;0.30;0.30;;;;;;;;;;5064233;28;20788;-78
2024/03/14 09:43:42;;;;;;;0.30;0.20;;;;;;;;;;5065079;28;20423;-78
2024/03/14 09:46:08;;;;;;;0.40;0.40;;;;;;;;;;5058499;28;20036;-78
2024/03/14 09:48:35;;;;;;;0.63;0.35;;;;;;;;;;5064653;28;20105;-78
2024/03/14 09:51:05;;;;;;;0.28;0.28;;;;;;;;;;5063251;28;20120;-78
2024/03/14 09:53:31;;;;;;;0.20;0.20;;;;;;;;;;5064074;28;20025;-78
2024/03/14 09:55:58;;;;;;;0.32;0.30;;;;;;;;;;5060880;28;20021;-77
2024/03/14 09:58:24;;;;;;;0.55;0.20;;;;;;;;;;5063448;28;20021;-77
2024/03/14 10:00:52;;;;;;;0.47;0.43;;;;;;;;;;5061779;28;20094;-80
2024/03/14 10:03:20;;;;;;;0.20;0.20;;;;;;;;;;5062363;28;20056;-79
2024/03/14 10:05:47;;;;;;;0.30;0.30;;;;;;;;;;5061549;28;20032;-77
2024/03/14 10:08:16;;;;;;;0.30;0.30;;;;;;;;;;5061458;28;20024;-78
2024/03/14 10:10:42;;;;;;;0.30;0.17;;;;;;;;;;5053869;28;20028;-77
2024/03/14 10:13:10;;;;;;;0.10;0.10;;;;;;;;;;5063273;28;20517;-78
2024/03/14 10:15:39;;;;;;;0.30;0.30;;;;;;;;;;5062029;28;21159;-77
2024/03/14 10:18:08;;;;;;;0.20;0.20;;;;;;;;;;5059075;28;20546;-77
2024/03/14 10:20:37;;;;;;;0.20;0.20;;;;;;;;;;5060059;28;20105;-77
2024/03/14 10:23:03;;;;;;;0.20;0.20;;;;;;;;;;5061931;28;20096;-76
2024/03/14 10:25:38;;;;;;;0.30;0.28;;;;;;;;;;5060551;28;20029;-77
2024/03/14 10:28:05;;;;;;;0.35;0.35;;;;;;;;;;5055091;28;20036;-75
2024/03/14 10:30:33;;;;;;;0.57;0.30;;;;;;;;;;5056710;28;20053;-77
2024/03/14 10:32:59;;;;;;;0.38;0.38;;;;;;;;;;5059976;28;20061;-77
2024/03/14 10:35:27;;;;;;;1.00;0.30;;;;;;;;;;5058147;28;20021;-76
2024/03/14 10:37:59;;;;;;;0.30;0.30;;;;;;;;;;5057980;28;20111;-78
2024/03/14 10:40:28;;;;;;;0.43;0.30;;;;;;;;;;5059264;28;20017;-77
2024/03/14 10:42:55;;;;;;;0.30;0.30;;;;;;;;;;5059281;28;20017;-78
2024/03/14 10:45:26;;;;;;;0.30;0.30;;;;;;;;;;5058699;28;20049;-77
2024/03/14 10:47:53;;;;;;;0.10;0.10;;;;;;;;;;5058328;28;20033;-77
2024/03/14 10:50:21;;;;;;;0.55;0.43;;;;;;;;;;5057965;28;20057;-77
2024/03/14 10:52:49;;;;;;;0.20;0.20;;;;;;;;;;5060787;28;20017;-77
2024/03/14 10:55:17;;;;;;;0.20;0.20;;;;;;;;;;5061609;28;20033;-77
2024/03/14 10:57:45;;;;;;;0.13;0.13;;;;;;;;;;5057425;28;20029;-77
2024/03/14 11:00:17;;;;;;;0.52;0.20;;;;;;;;;;5057237;28;20072;-77
2024/03/14 11:02:45;;;;;;;0.20;0.20;;;;;;;;;;5047028;28;20074;-76
2024/03/14 11:05:12;;;;;;;0.65;0.32;;;;;;;;;;5056753;28;20364;-76
2024/03/14 11:07:39;;;;;;;0.32;0.30;;;;;;;;;;5051773;28;20083;-76
2024/03/14 11:10:09;;;;;;;0.35;0.35;;;;;;;;;;5057807;28;20464;-76
2024/03/14 11:12:36;;;;;;;0.30;0.30;;;;;;;;;;5058496;22;20045;-79
2024/03/14 11:15:07;;;;;;;0.30;0.30;;;;;;;;;;5045882;28;20451;-77
2024/03/14 11:17:34;;;;;;;0.20;0.20;;;;;;;;;;5048504;28;20100;-78
2024/03/14 11:20:04;;;;;;;0.30;0.30;;;;;;;;;;5053079;28;20029;-77
2024/03/14 11:22:32;;;;;;;0.43;0.32;;;;;;;;;;5047439;28;20036;-78
2024/03/14 11:24:59;;;;;;;1.00;0.20;;;;;;;;;;5048891;28;20049;-77
2024/03/14 11:27:25;;;;;;;0.20;0.20;;;;;;;;;;5045387;28;20514;-78
2024/03/14 11:29:52;;;;;;;0.30;0.30;;;;;;;;;;5052998;28;20029;-79
2024/03/14 11:32:23;;;;;;;0.20;0.20;;;;;;;;;;5053548;28;20033;-79
2024/03/14 11:34:53;;;;;;;0.20;0.20;;;;;;;;;;5041615;28;20085;-79
2024/03/14 11:37:19;;;;;;;0.20;0.20;;;;;;;;;;5037238;28;20029;-79
2024/03/14 11:39:49;;;;;;;0.63;0.30;;;;;;;;;;5034884;28;20025;-78
2024/03/14 11:42:16;;;;;;;0.30;0.20;;;;;;;;;;5040182;28;20056;-77
2024/03/14 11:44:45;;;;;;;0.20;0.20;;;;;;;;;;5037231;28;20531;-77
2024/03/14 11:47:14;;;;;;;0.70;0.20;;;;;;;;;;5047060;28;20143;-80
2024/03/14 11:49:43;;;;;;;0.10;0.10;;;;;;;;;;5033854;28;20025;-79
2024/03/14 11:52:15;;;;;;;0.20;0.20;;;;;;;;;;5049141;28;20048;-79
2024/03/14 11:54:41;;;;;;;0.20;0.20;;;;;;;;;;5035585;28;20378;-78
2024/03/14 11:57:15;;;;;;;0.25;0.25;;;;;;;;;;5051612;28;20021;-76
2024/03/14 11:59:41;;;;;;;0.32;0.32;;;;;;;;;;5042726;28;20076;-78
2024/03/14 12:02:08;;;;;;;0.20;0.20;;;;;;;;;;5062184;28;20446;-78
2024/03/14 12:04:35;;;;;;;0.30;0.30;;;;;;;;;;5046458;28;20063;-79
2024/03/14 12:07:03;;;;;;;0.30;0.30;;;;;;;;;;5033868;28;20041;-79
2024/03/14 12:09:33;;;;;;;0.80;0.25;;;;;;;;;;5032594;28;20052;-78
2024/03/14 12:11:59;;;;;;;0.20;0.20;;;;;;;;;;5041772;28;20037;-78
2024/03/14 12:14:26;;;;;;;0.30;0.30;;;;;;;;;;5042911;28;20057;-77
2024/03/14 12:16:52;;;;;;;0.17;0.17;;;;;;;;;;5041493;28;20027;-79
2024/03/14 12:19:19;;;;;;;0.28;0.20;;;;;;;;;;5043968;28;20071;-80
2024/03/14 12:22:00;;;;;;;0.22;0.22;;;;;;;;;;5040640;28;20044;-78
2024/03/14 12:24:26;;;;;;;0.20;0.20;;;;;;;;;;5031855;28;20032;-79
2024/03/14 12:26:58;;;;;;;0.10;0.10;;;;;;;;;;5031332;28;20021;-77
2024/03/14 12:29:28;;;;;;;0.50;0.40;;;;;;;;;;5046433;28;20110;-78
2024/03/14 12:32:00;;;;;;;0.30;0.30;;;;;;;;;;5042344;28;20099;-78
2024/03/14 12:34:26;;;;;;;0.30;0.30;;;;;;;;;;5043606;28;20479;-79
2024/03/14 12:36:53;;;;;;;0.30;0.22;;;;;;;;;;5028701;28;20018;-79
2024/03/14 12:39:19;;;;;;;0.30;0.30;;;;;;;;;;5031394;28;20051;-78
2024/03/14 12:41:45;;;;;;;0.20;0.20;;;;;;;;;;5032883;28;20029;-79
2024/03/14 12:44:12;;;;;;;0.30;0.30;;;;;;;;;;5040349;28;20040;-79
2024/03/14 12:46:38;;;;;;;0.10;0.10;;;;;;;;;;5042349;28;20032;-78
2024/03/14 12:49:09;;;;;;;0.30;0.30;;;;;;;;;;5041360;28;20105;-78
2024/03/14 12:51:35;;;;;;;0.20;0.20;;;;;;;;;;5047919;28;20088;-80
2024/03/14 12:54:03;;;;;;;0.30;0.28;;;;;;;;;;5036485;28;20072;-78
2024/03/14 12:56:30;;;;;;;0.45;0.40;;;;;;;;;;5049808;28;20025;-76
2024/03/14 12:58:57;;;;;;;0.38;0.38;;;;;;;;;;5048711;28;20105;-78
2024/03/14 13:01:42;;;;;;;0.20;0.20;;;;;;;;;;5057234;28;20025;-80
2024/03/14 13:04:10;;;;;;;0.20;0.17;;;;;;;;;;5065255;28;20009;-79
2024/03/14 13:06:38;;;;;;;0.30;0.20;;;;;;;;;;5048727;28;20464;-77
2024/03/14 13:09:15;;;;;;;0.30;0.20;;;;;;;;;;5033703;28;20022;-77
2024/03/14 13:12:01;;;;;;;0.20;0.20;;;;;;;;;;5045040;28;20036;-78
2024/03/14 13:14:28;;;;;;;0.20;0.20;;;;;;;;;;5034704;28;20025;-77
2024/03/14 13:17:04;;;;;;;0.28;0.28;;;;;;;;;;5039079;28;20418;-77
2024/03/14 13:19:32;;;;;;;0.90;0.30;;;;;;;;;;5064074;28;20014;-79
2024/03/14 13:21:58;;;;;;;0.32;0.10;;;;;;;;;;5058439;28;20021;-79
2024/03/14 13:24:25;;;;;;;0.30;0.30;;;;;;;;;;5064580;28;20032;-78
2024/03/14 13:26:54;;;;;;;0.40;0.40;;;;;;;;;;5040493;28;20020;-78
2024/03/14 13:29:25;;;;;;;0.40;0.40;;;;;;;;;;5048873;28;20093;-78
2024/03/14 13:31:52;;;;;;;0.30;0.30;;;;;;;;;;5043347;28;20109;-76
2024/03/14 13:34:18;;;;;;;0.50;0.40;;;;;;;;;;5043300;28;20022;-79
2024/03/14 13:36:46;;;;;;;0.70;0.40;;;;;;;;;;5033683;28;20476;-78
2024/03/14 13:39:14;;;;;;;0.30;0.30;;;;;;;;;;5032161;28;20068;-77
2024/03/14 13:41:42;;;;;;;0.65;0.40;;;;;;;;;;5034919;28;20023;-77
2024/03/14 13:44:09;;;;;;;0.30;0.30;;;;;;;;;;5034979;28;20017;-77
2024/03/14 13:46:41;;;;;;;0.57;0.22;;;;;;;;;;5045783;28;20033;-78
2024/03/14 13:49:11;;;;;;;0.80;0.40;;;;;;;;;;5035390;28;20025;-77
2024/03/14 13:51:39;;;;;;;0.30;0.30;;;;;;;;;;5039576;28;20049;-77
2024/03/14 13:54:06;;;;;;;0.30;0.30;;;;;;;;;;5046894;28;20147;-77
2024/03/14 13:56:32;;;;;;;0.55;0.40;;;;;;;;;;5044033;28;20091;-79
2024/03/14 13:59:03;;;;;;;0.30;0.30;;;;;;;;;;5039125;28;20022;-79
2024/03/14 14:01:33;;;;;;;0.30;0.30;;;;;;;;;;5032299;28;20037;-78
2024/03/14 14:04:02;;;;;;;0.30;0.30;;;;;;;;;;5044244;28;20044;-78
2024/03/14 14:06:28;;;;;;;0.10;0.10;;;;;;;;;;5046741;28;20067;-78
2024/03/14 14:08:55;;;;;;;0.30;0.30;;;;;;;;;;5036572;28;20055;-79
2024/03/14 14:11:23;;;;;;;0.20;0.20;;;;;;;;;;5051783;28;20112;-77
2024/03/14 14:13:49;;;;;;;0.20;0.20;;;;;;;;;;5036042;28;20025;-79
2024/03/14 14:16:17;;;;;;;0.20;0.20;;;;;;;;;;5039197;28;20033;-78
2024/03/14 14:18:44;;;;;;;0.25;0.10;;;;;;;;;;5035082;28;20026;-80
2024/03/14 14:21:11;;;;;;;0.10;0.10;;;;;;;;;;5043204;28;20021;-77
2024/03/14 14:23:37;;;;;;;0.10;0.10;;;;;;;;;;5036171;28;20120;-77
2024/03/14 14:26:10;;;;;;;0.20;0.20;;;;;;;;;;5040281;28;20483;-79
2024/03/14 14:28:36;;;;;;;0.20;0.20;;;;;;;;;;5044414;28;20029;-78
2024/03/14 14:31:02;;;;;;;0.20;0.20;;;;;;;;;;5041571;28;20108;-77
2024/03/14 14:33:28;;;;;;;0.20;0.20;;;;;;;;;;5036399;28;20341;-78
2024/03/14 14:35:55;;;;;;;0.40;0.40;;;;;;;;;;5039347;28;20030;-76
2024/03/14 14:38:21;;;;;;;0.30;0.30;;;;;;;;;;5030332;28;20546;-78
2024/03/14 14:40:48;;;;;;;0.30;0.20;;;;;;;;;;5042484;28;20025;-78
2024/03/14 14:43:16;;;;;;;0.30;0.30;;;;;;;;;;5043600;28;20341;-78
2024/03/14 14:45:43;;;;;;;0.22;0.20;;;;;;;;;;5042532;28;20018;-78
2024/03/14 14:48:09;;;;;;;0.20;0.20;;;;;;;;;;5053763;28;20074;-78
2024/03/14 14:50:39;;;;;;;0.20;0.20;;;;;;;;;;5038535;28;20033;-77